createdAt,value
2023-01-03T00:01:59.306Z,8.71
2023-01-03T00:04:26.136Z,8.71
2023-01-03T00:06:53.150Z,8.88
2023-01-03T00:09:21.440Z,8.91
2023-01-03T00:12:07.213Z,8.90
2023-01-03T00:14:35.876Z,8.64
2023-01-03T00:17:03.460Z,8.63
2023-01-03T00:19:33.528Z,8.78
2023-01-03T00:22:00.209Z,8.87
2023-01-03T00:24:26.802Z,8.70
2023-01-03T00:26:56.306Z,8.54
2023-01-03T00:29:22.927Z,8.72
2023-01-03T00:31:49.574Z,8.77
2023-01-03T00:34:16.271Z,8.81
2023-01-03T00:36:42.881Z,8.81
2023-01-03T00:39:11.928Z,8.72
2023-01-03T00:41:38.698Z,8.55
2023-01-03T00:44:05.462Z,8.61
2023-01-03T00:46:32.123Z,8.62
2023-01-03T00:48:58.838Z,8.70
2023-01-03T00:51:26.904Z,8.46
2023-01-03T00:53:56.145Z,8.27
2023-01-03T00:56:25.237Z,8.53
2023-01-03T00:58:53.253Z,8.55
2023-01-03T01:01:27.571Z,8.41
2023-01-03T01:03:59.898Z,8.47
2023-01-03T01:06:31.872Z,8.34
2023-01-03T01:08:59.519Z,8.27
2023-01-03T01:11:26.541Z,8.42
2023-01-03T01:13:53.958Z,8.30
2023-01-03T01:16:31.974Z,8.23
2023-01-03T01:18:59.638Z,8.54
2023-01-03T01:21:30.814Z,8.47
2023-01-03T01:23:59.242Z,8.35
2023-01-03T01:26:25.915Z,8.05
2023-01-03T01:28:53.355Z,8.18
2023-01-03T01:31:21.753Z,8.10
2023-01-03T01:33:48.545Z,8.22
2023-01-03T01:36:20.647Z,8.11
2023-01-03T01:38:47.940Z,8.47
2023-01-03T01:41:39.514Z,8.24
2023-01-03T01:44:25.077Z,8.43
2023-01-03T01:46:51.713Z,8.46
2023-01-03T01:49:21.906Z,8.42
2023-01-03T01:51:48.503Z,8.22
2023-01-03T01:54:15.123Z,8.19
2023-01-03T01:56:50.098Z,8.42
2023-01-03T01:59:16.719Z,8.43
2023-01-03T02:01:44.694Z,8.35
2023-01-03T02:04:15.865Z,8.49
2023-01-03T02:06:42.477Z,8.56
2023-01-03T02:09:09.114Z,8.48
2023-01-03T02:12:14.604Z,8.40
2023-01-03T02:15:12.772Z,8.51
2023-01-03T02:17:47.131Z,8.39
2023-01-03T02:20:25.829Z,8.48
2023-01-03T02:23:04.198Z,8.18
2023-01-03T02:25:52.221Z,8.26
2023-01-03T02:28:46.351Z,8.45
2023-01-03T02:31:25.181Z,8.33
2023-01-03T02:33:59.679Z,8.23
2023-01-03T02:36:47.921Z,8.33
2023-01-03T02:39:23.964Z,8.17
2023-01-03T02:42:50.757Z,8.38
2023-01-03T02:45:28.010Z,8.46
2023-01-03T02:48:01.430Z,8.38
2023-01-03T02:50:28.991Z,8.03
2023-01-03T02:52:57.185Z,8.00
2023-01-03T02:55:24.793Z,8.28
2023-01-03T02:58:11.685Z,8.19
2023-01-03T03:00:41.401Z,8.26
2023-01-03T03:03:13.109Z,8.15
2023-01-03T03:05:48.033Z,8.07
2023-01-03T03:08:14.658Z,8.16
2023-01-03T03:11:01.240Z,7.87
2023-01-03T03:13:35.891Z,8.05
2023-01-03T03:16:05.494Z,8.07
2023-01-03T03:18:55.747Z,7.78
2023-01-03T03:21:40.511Z,7.57
2023-01-03T03:24:32.519Z,7.77
2023-01-03T03:26:59.170Z,7.60
2023-01-03T03:29:25.770Z,7.38
2023-01-03T03:31:52.736Z,7.39
2023-01-03T03:34:26.538Z,7.41
2023-01-03T03:37:22.077Z,7.57
2023-01-03T03:40:07.322Z,7.52
2023-01-03T03:43:03.595Z,7.66
2023-01-03T03:45:32.730Z,7.89
2023-01-03T03:48:19.025Z,7.96
2023-01-03T03:51:08.364Z,8.07
2023-01-03T03:53:35.385Z,8.13
2023-01-03T03:56:05.371Z,8.02
2023-01-03T03:58:42.581Z,8.13
2023-01-03T04:01:12.231Z,8.03
2023-01-03T04:03:39.496Z,8.22
2023-01-03T04:06:09.952Z,8.32
2023-01-03T04:08:36.572Z,8.11
2023-01-03T04:11:06.084Z,7.97
2023-01-03T04:13:33.647Z,7.79
2023-01-03T04:16:03.090Z,7.74
2023-01-03T04:18:29.860Z,7.83
2023-01-03T04:20:56.504Z,7.93
2023-01-03T04:23:23.276Z,7.88
2023-01-03T04:25:50.369Z,7.79
2023-01-03T04:28:17.491Z,7.74
2023-01-03T04:30:44.181Z,7.95
2023-01-03T04:33:10.904Z,7.65
2023-01-03T04:35:37.518Z,7.79
2023-01-03T04:38:04.634Z,8.01
2023-01-03T04:40:31.439Z,8.11
2023-01-03T04:43:16.700Z,7.94
2023-01-03T04:45:43.418Z,8.05
2023-01-03T04:48:10.057Z,8.19
2023-01-03T04:50:36.672Z,8.18
2023-01-03T04:53:03.367Z,8.30
2023-01-03T04:55:29.977Z,8.24
2023-01-03T04:57:56.621Z,7.89
2023-01-03T05:00:23.257Z,7.90
2023-01-03T05:02:49.891Z,7.97
2023-01-03T05:05:16.577Z,7.70
2023-01-03T05:07:43.380Z,7.63
2023-01-03T05:10:10.053Z,7.57
2023-01-03T05:12:36.641Z,7.57
2023-01-03T05:15:03.438Z,7.12
2023-01-03T05:17:30.087Z,7.18
2023-01-03T05:20:15.308Z,7.34
2023-01-03T05:23:00.490Z,7.48
2023-01-03T05:25:45.865Z,7.37
2023-01-03T05:28:17.307Z,7.49
2023-01-03T05:30:44.256Z,7.65
2023-01-03T05:33:10.914Z,7.82
2023-01-03T05:35:38.284Z,7.99
2023-01-03T05:38:04.944Z,7.95
2023-01-03T05:40:36.196Z,7.46
2023-01-03T05:43:05.981Z,7.73
2023-01-03T05:45:32.759Z,7.27
2023-01-03T05:48:00.813Z,7.09
2023-01-03T05:50:27.459Z,7.22
2023-01-03T05:52:54.137Z,7.14
2023-01-03T05:55:20.754Z,7.36
2023-01-03T05:57:47.616Z,7.09
2023-01-03T06:00:14.871Z,7.17
2023-01-03T06:02:41.554Z,7.20
2023-01-03T06:05:08.661Z,7.26
2023-01-03T06:07:37.221Z,7.21
2023-01-03T06:10:07.219Z,7.40
2023-01-03T06:12:33.797Z,7.56
2023-01-03T06:15:00.584Z,7.69
2023-01-03T06:17:45.867Z,7.86
2023-01-03T06:20:12.427Z,8.18
2023-01-03T06:22:39.107Z,8.09
2023-01-03T06:25:05.816Z,7.89
2023-01-03T06:27:32.419Z,7.97
2023-01-03T06:29:59.689Z,8.13
2023-01-03T06:32:26.576Z,8.06
2023-01-03T06:34:53.234Z,7.93
2023-01-03T06:37:19.846Z,8.04
2023-01-03T06:39:46.487Z,8.15
2023-01-03T06:42:31.521Z,8.21
2023-01-03T06:45:16.625Z,8.14
2023-01-03T06:48:02.027Z,7.83
2023-01-03T06:50:47.470Z,7.53
2023-01-03T06:53:15.305Z,7.66
2023-01-03T06:55:42.367Z,7.67
2023-01-03T06:58:09.075Z,7.74
2023-01-03T07:00:36.540Z,7.45
2023-01-03T07:03:10.736Z,7.50
2023-01-03T07:05:39.033Z,7.37
2023-01-03T07:08:05.756Z,7.42
2023-01-03T07:10:32.424Z,7.77
2023-01-03T07:13:20.758Z,7.47
2023-01-03T07:15:47.455Z,7.49
2023-01-03T07:18:14.233Z,7.45
2023-01-03T07:20:42.424Z,7.26
2023-01-03T07:23:09.403Z,7.25
2023-01-03T07:25:41.005Z,7.15
2023-01-03T07:28:11.737Z,7.25
2023-01-03T07:30:42.758Z,7.17
2023-01-03T07:33:09.859Z,7.12
2023-01-03T07:35:36.812Z,6.87
2023-01-03T07:38:03.917Z,6.98
2023-01-03T07:40:30.691Z,7.19
2023-01-03T07:43:15.821Z,7.28
2023-01-03T07:45:42.958Z,7.22
2023-01-03T07:48:09.768Z,6.97
2023-01-03T07:50:37.289Z,7.17
2023-01-03T07:53:04.648Z,7.17
2023-01-03T07:55:35.299Z,7.01
2023-01-03T07:58:02.597Z,7.16
2023-01-03T08:00:29.301Z,7.10
2023-01-03T08:02:56.191Z,6.80
2023-01-03T08:05:23.244Z,6.92
2023-01-03T08:07:50.587Z,6.97
2023-01-03T08:10:36.377Z,6.86
2023-01-03T08:13:18.256Z,6.71
2023-01-03T08:15:45.401Z,6.86
2023-01-03T08:18:12.454Z,6.77
2023-01-03T08:20:39.136Z,6.61
2023-01-03T08:23:05.755Z,6.66
2023-01-03T08:25:32.359Z,6.84
2023-01-03T08:27:59.574Z,6.72
2023-01-03T08:30:26.203Z,6.80
2023-01-03T08:32:53.546Z,7.06
2023-01-03T08:35:20.383Z,7.23
2023-01-03T08:37:47.046Z,7.27
2023-01-03T08:40:14.428Z,7.36
2023-01-03T08:42:41.042Z,7.37
2023-01-03T08:45:10.519Z,7.40
2023-01-03T08:47:37.145Z,7.26
2023-01-03T08:50:04.316Z,7.15
2023-01-03T08:52:34.979Z,7.34
2023-01-03T08:55:02.632Z,7.32
2023-01-03T08:57:29.253Z,7.48
2023-01-03T08:59:55.926Z,7.23
2023-01-03T09:02:22.665Z,7.41
2023-01-03T09:04:49.465Z,7.35
2023-01-03T09:07:16.033Z,7.36
2023-01-03T09:09:42.655Z,7.07
2023-01-03T09:12:09.265Z,7.54
2023-01-03T09:14:35.887Z,7.28
2023-01-03T09:17:02.517Z,7.18
2023-01-03T09:19:29.245Z,7.07
2023-01-03T09:21:55.942Z,7.12
2023-01-03T09:24:22.668Z,6.97
2023-01-03T09:26:54.141Z,7.29
2023-01-03T09:29:24.260Z,7.21
2023-01-03T09:31:53.875Z,6.91
2023-01-03T09:34:20.551Z,6.63
2023-01-03T09:36:49.449Z,6.85
2023-01-03T09:39:16.088Z,7.20
2023-01-03T09:41:42.691Z,7.15
2023-01-03T09:44:09.355Z,7.13
2023-01-03T09:46:36.080Z,7.25
2023-01-03T09:49:02.740Z,7.66
2023-01-03T09:51:50.615Z,7.57
2023-01-03T09:54:48.811Z,7.48
2023-01-03T09:57:39.756Z,7.55
2023-01-03T10:00:33.825Z,7.39
2023-01-03T10:03:43.455Z,7.54
2023-01-03T10:06:32.675Z,7.64
2023-01-03T10:09:02.935Z,7.60
2023-01-03T10:11:58.427Z,7.67
2023-01-03T10:14:45.727Z,7.76
2023-01-03T10:17:21.840Z,8.09
2023-01-03T10:20:15.056Z,7.86
2023-01-03T10:22:41.741Z,7.88
2023-01-03T10:25:17.950Z,8.03
2023-01-03T10:27:52.231Z,8.28
2023-01-03T10:30:20.197Z,8.65
2023-01-03T10:33:11.758Z,9.34
2023-01-03T10:35:38.353Z,9.79
2023-01-03T10:38:04.991Z,9.82
2023-01-03T10:40:44.155Z,9.36
2023-01-03T10:43:15.764Z,8.49
2023-01-03T10:45:59.233Z,8.62
2023-01-03T10:48:52.520Z,8.91
2023-01-03T10:51:35.705Z,8.87
2023-01-03T10:54:11.815Z,9.44
2023-01-03T10:56:38.510Z,9.93
2023-01-03T10:59:32.915Z,10.04
2023-01-03T11:02:06.766Z,9.60
2023-01-03T11:04:33.650Z,9.50
2023-01-03T11:07:01.826Z,9.57
2023-01-03T11:09:52.186Z,9.51
2023-01-03T11:12:33.418Z,9.26
2023-01-03T11:15:01.236Z,8.91
2023-01-03T11:17:28.668Z,8.54
2023-01-03T11:19:55.486Z,8.28
2023-01-03T11:22:38.329Z,8.32
2023-01-03T11:25:15.728Z,8.30
2023-01-03T11:28:16.293Z,8.40
2023-01-03T11:31:01.310Z,8.44
2023-01-03T11:33:45.988Z,8.56
2023-01-03T11:36:22.636Z,8.55
2023-01-03T11:39:26.330Z,8.29
2023-01-03T11:42:26.178Z,8.30
2023-01-03T11:45:01.742Z,8.42
2023-01-03T11:47:45.016Z,8.60
2023-01-03T11:50:32.892Z,8.46
2023-01-03T11:53:04.177Z,8.11
2023-01-03T11:55:54.589Z,8.14
2023-01-03T11:58:25.724Z,8.40
2023-01-03T12:01:14.044Z,7.93
2023-01-03T12:03:48.372Z,8.09
2023-01-03T12:06:28.434Z,8.23
2023-01-03T12:08:58.531Z,8.30
2023-01-03T12:11:36.440Z,8.57
2023-01-03T12:14:18.372Z,8.79
2023-01-03T12:16:47.126Z,8.54
2023-01-03T12:19:38.153Z,8.70
2023-01-03T12:22:22.783Z,8.64
2023-01-03T12:24:59.181Z,8.66
2023-01-03T12:27:55.284Z,8.55
2023-01-03T12:30:34.090Z,8.60
2023-01-03T12:33:05.832Z,8.65
2023-01-03T12:35:48.543Z,8.73
2023-01-03T12:38:15.197Z,9.19
2023-01-03T12:41:05.943Z,9.80
2023-01-03T12:43:46.872Z,9.44
2023-01-03T12:46:22.455Z,9.58
2023-01-03T12:49:12.504Z,9.32
2023-01-03T12:51:39.201Z,9.08
2023-01-03T12:54:24.016Z,9.00
2023-01-03T12:56:57.991Z,9.13
2023-01-03T12:59:39.141Z,9.22
2023-01-03T13:02:30.496Z,8.90
2023-01-03T13:05:04.793Z,8.94
2023-01-03T13:07:32.093Z,8.80
2023-01-03T13:10:06.851Z,9.04
2023-01-03T13:12:36.196Z,9.20
2023-01-03T13:15:02.804Z,8.89
2023-01-03T13:17:41.536Z,9.09
2023-01-03T13:20:28.153Z,8.98
2023-01-03T13:22:58.723Z,9.21
2023-01-03T13:25:35.570Z,9.49
2023-01-03T13:28:08.961Z,9.65
2023-01-03T13:30:36.737Z,9.22
2023-01-03T13:33:12.251Z,9.08
2023-01-03T13:35:44.618Z,9.10
2023-01-03T13:38:23.839Z,8.81
2023-01-03T13:41:19.923Z,8.77
2023-01-03T13:43:40.261Z,8.69
2023-01-03T13:46:26.284Z,8.66
2023-01-03T13:49:03.347Z,8.91
2023-01-03T13:51:39.244Z,9.22
2023-01-03T13:54:11.634Z,8.95
2023-01-03T13:56:43.971Z,8.68
2023-01-03T13:59:17.914Z,8.67
2023-01-03T14:01:50.222Z,8.69
2023-01-03T14:04:23.199Z,8.46
2023-01-03T14:07:14.654Z,8.92
2023-01-03T14:09:54.400Z,8.43
2023-01-03T14:12:45.082Z,8.37
2023-01-03T14:15:26.004Z,8.07
2023-01-03T14:17:55.693Z,7.97
2023-01-03T14:20:24.238Z,7.73
2023-01-03T14:22:51.550Z,7.72
2023-01-03T14:25:34.849Z,7.66
2023-01-03T14:28:02.469Z,7.64
2023-01-03T14:30:31.739Z,7.95
2023-01-03T14:32:58.737Z,7.78
2023-01-03T14:36:07.568Z,7.90
2023-01-03T14:38:35.048Z,7.55
2023-01-03T14:41:02.728Z,7.38
2023-01-03T14:43:30.348Z,7.43
2023-01-03T14:45:58.355Z,7.44
2023-01-03T14:48:25.047Z,7.80
2023-01-03T14:50:51.884Z,7.74
2023-01-03T14:53:18.522Z,7.60
2023-01-03T14:55:55.805Z,7.78
2023-01-03T14:58:31.426Z,7.47
2023-01-03T15:00:58.130Z,7.69
2023-01-03T15:03:25.301Z,7.74
2023-01-03T15:05:53.965Z,7.98
2023-01-03T15:08:41.721Z,8.00
2023-01-03T15:11:09.041Z,7.44
2023-01-03T15:13:46.859Z,7.65
2023-01-03T15:16:28.871Z,7.84
2023-01-03T15:19:13.507Z,7.49
2023-01-03T15:21:40.905Z,7.46
2023-01-03T15:24:17.211Z,7.53
2023-01-03T15:26:48.587Z,7.78
2023-01-03T15:29:25.245Z,7.81
2023-01-03T15:32:01.057Z,7.42
2023-01-03T15:34:30.427Z,7.55
2023-01-03T15:37:02.921Z,7.06
2023-01-03T15:39:43.132Z,6.67
2023-01-03T15:42:44.530Z,6.79
2023-01-03T15:45:19.689Z,6.27
2023-01-03T15:47:53.374Z,5.99
2023-01-03T15:50:20.073Z,6.72
2023-01-03T15:52:47.374Z,6.55
2023-01-03T15:55:14.647Z,6.47
2023-01-03T15:57:41.272Z,6.73
2023-01-03T16:00:10.724Z,6.38
2023-01-03T16:02:37.447Z,6.40
2023-01-03T16:05:04.489Z,6.20
2023-01-03T16:07:31.088Z,6.19
2023-01-03T16:09:57.778Z,5.77
2023-01-03T16:12:32.919Z,6.01
2023-01-03T16:14:59.595Z,5.68
2023-01-03T16:17:26.801Z,5.68
2023-01-03T16:19:53.633Z,5.67
2023-01-03T16:22:36.863Z,4.90
2023-01-03T16:25:05.058Z,5.05
2023-01-03T16:27:31.700Z,5.24
2023-01-03T16:29:58.397Z,5.33
2023-01-03T16:32:27.486Z,4.90
2023-01-03T16:34:59.692Z,4.86
2023-01-03T16:37:27.455Z,5.18
2023-01-03T16:39:54.129Z,5.27
2023-01-03T16:42:27.479Z,5.45
2023-01-03T16:44:54.507Z,5.46
2023-01-03T16:47:24.385Z,5.48
2023-01-03T16:49:57.624Z,5.49
2023-01-03T16:52:26.986Z,5.64
2023-01-03T16:54:53.611Z,5.22
2023-01-03T16:57:21.745Z,5.08
2023-01-03T16:59:48.728Z,4.87
2023-01-03T17:02:18.058Z,4.95
2023-01-03T17:04:44.805Z,4.99
2023-01-03T17:07:18.375Z,4.74
2023-01-03T17:09:45.003Z,4.59
2023-01-03T17:12:12.156Z,4.69
2023-01-03T17:14:38.813Z,5.07
2023-01-03T17:17:08.568Z,4.90
2023-01-03T17:22:23.231Z,4.97
2023-01-03T17:24:50.516Z,4.90
2023-01-03T17:27:25.057Z,4.75
2023-01-03T17:29:59.364Z,4.80
2023-01-03T17:32:26.605Z,4.70
2023-01-03T17:34:53.302Z,4.51
2023-01-03T17:37:20.320Z,4.53
2023-01-03T17:39:57.450Z,4.35
2023-01-03T17:42:24.144Z,4.39
2023-01-03T17:45:09.379Z,4.48
2023-01-03T17:48:02.246Z,4.89
2023-01-03T17:50:29.676Z,4.97
2023-01-03T17:52:56.739Z,5.10
2023-01-03T17:55:25.173Z,4.46
2023-01-03T17:57:51.806Z,5.04
2023-01-03T18:00:19.996Z,4.62
2023-01-03T18:02:46.789Z,4.33
2023-01-03T18:05:19.936Z,4.43
2023-01-03T18:07:49.581Z,4.89
2023-01-03T18:10:17.362Z,5.03
2023-01-03T18:12:44.156Z,5.09
2023-01-03T18:15:17.859Z,5.32
2023-01-03T18:17:44.684Z,5.34
2023-01-03T18:20:15.670Z,5.48
2023-01-03T18:22:42.928Z,5.62
2023-01-03T18:25:24.051Z,5.65
2023-01-03T18:27:56.622Z,5.34
2023-01-03T18:30:23.364Z,6.06
2023-01-03T18:32:50.073Z,5.61
2023-01-03T18:35:22.469Z,6.09
2023-01-03T18:37:54.449Z,5.76
2023-01-03T18:40:22.954Z,6.02
2023-01-03T18:43:08.171Z,6.11
2023-01-03T18:45:35.078Z,5.69
2023-01-03T18:48:01.971Z,5.82
2023-01-03T18:50:28.628Z,5.67
2023-01-03T18:52:55.489Z,5.88
2023-01-03T18:55:26.063Z,5.36
2023-01-03T18:57:52.802Z,5.58
2023-01-03T19:00:21.329Z,5.78
2023-01-03T19:02:48.418Z,6.27
2023-01-03T19:05:15.291Z,6.27
2023-01-03T19:07:42.527Z,6.37
2023-01-03T19:10:20.751Z,5.74
2023-01-03T19:12:47.986Z,5.41
2023-01-03T19:15:16.677Z,5.83
2023-01-03T19:17:43.260Z,6.24
2023-01-03T19:20:10.391Z,6.15
2023-01-03T19:22:37.850Z,6.30
2023-01-03T19:25:06.145Z,6.34
2023-01-03T19:27:53.258Z,6.78
2023-01-03T19:30:41.459Z,6.46
2023-01-03T19:33:12.828Z,6.00
2023-01-03T19:35:39.462Z,6.04
2023-01-03T19:38:06.139Z,5.98
2023-01-03T19:40:33.553Z,6.23
2023-01-03T19:43:00.242Z,6.34
2023-01-03T19:45:37.031Z,6.19
2023-01-03T19:48:06.728Z,6.27
2023-01-03T19:50:34.724Z,6.23
2023-01-03T19:53:04.489Z,6.31
2023-01-03T19:55:32.326Z,6.28
2023-01-03T19:58:01.965Z,6.21
2023-01-03T20:00:35.235Z,6.23
2023-01-03T20:03:06.473Z,6.27
2023-01-03T20:05:37.288Z,6.04
2023-01-03T20:08:16.343Z,6.41
2023-01-03T20:10:45.908Z,6.53
2023-01-03T20:13:17.491Z,6.47
2023-01-03T20:15:44.600Z,6.40
2023-01-03T20:18:33.483Z,6.17
2023-01-03T20:21:09.650Z,6.22
2023-01-03T20:23:48.075Z,6.27
2023-01-03T20:26:19.904Z,6.37
2023-01-03T20:29:07.194Z,6.33
2023-01-03T20:31:34.024Z,6.38
2023-01-03T20:34:01.253Z,6.54
2023-01-03T20:36:31.959Z,6.50
2023-01-03T20:39:00.656Z,6.54
2023-01-03T20:41:36.361Z,6.39
2023-01-03T20:44:04.335Z,6.44
2023-01-03T20:46:31.064Z,6.46
2023-01-03T20:48:59.725Z,6.43
2023-01-03T20:51:26.499Z,6.44
2023-01-03T20:53:55.015Z,6.42
2023-01-03T20:56:22.118Z,6.32
2023-01-03T20:58:48.800Z,6.09
2023-01-03T21:01:15.614Z,6.37
2023-01-03T21:03:42.533Z,6.25
2023-01-03T21:06:21.961Z,6.16
2023-01-03T21:08:54.709Z,6.21
2023-01-03T21:11:29.337Z,6.26
2023-01-03T21:13:56.640Z,6.24
2023-01-03T21:16:49.745Z,6.17
2023-01-03T21:19:20.302Z,6.20
2023-01-03T21:21:48.541Z,6.00
2023-01-03T21:24:16.579Z,6.28
2023-01-03T21:26:43.277Z,6.51
2023-01-03T21:29:10.126Z,5.89
2023-01-03T21:31:37.469Z,5.77
2023-01-03T21:34:05.119Z,5.72
2023-01-03T21:36:33.392Z,5.95
2023-01-03T21:39:00.572Z,6.28
2023-01-03T21:41:32.419Z,6.32
2023-01-03T21:44:25.958Z,6.41
2023-01-03T21:46:52.792Z,6.34
2023-01-03T21:49:19.636Z,6.27
2023-01-03T21:51:46.318Z,6.36
2023-01-03T21:54:12.979Z,6.24
2023-01-03T21:56:45.802Z,5.98
2023-01-03T21:59:14.266Z,5.51
2023-01-03T22:02:00.118Z,5.20
2023-01-03T22:04:26.875Z,4.96
2023-01-03T22:07:00.456Z,5.10
2023-01-03T22:09:46.860Z,5.19
2023-01-03T22:12:15.664Z,4.99
2023-01-03T22:14:43.530Z,5.18
2023-01-03T22:17:10.168Z,5.14
2023-01-03T22:19:36.943Z,5.18
2023-01-03T22:22:04.859Z,5.12
2023-01-03T22:24:31.556Z,5.07
2023-01-03T22:26:58.220Z,5.15
2023-01-03T22:29:24.820Z,5.25
2023-01-03T22:31:51.497Z,5.09
2023-01-03T22:34:18.353Z,4.85
2023-01-03T22:36:44.983Z,4.95
2023-01-03T22:39:11.590Z,4.98
2023-01-03T22:41:38.235Z,5.02
2023-01-03T22:44:04.890Z,4.92
2023-01-03T22:46:31.637Z,5.23
2023-01-03T22:48:58.372Z,4.90
2023-01-03T22:51:25.044Z,5.07
2023-01-03T22:53:51.653Z,5.01
2023-01-03T22:56:18.396Z,5.02
2023-01-03T22:58:45.235Z,4.98
2023-01-03T23:01:19.613Z,4.88
2023-01-03T23:03:46.793Z,4.95
2023-01-03T23:06:15.688Z,4.95
2023-01-03T23:08:42.431Z,5.05
2023-01-03T23:11:34.316Z,5.07
2023-01-03T23:14:03.249Z,4.93
2023-01-03T23:16:31.128Z,5.08
2023-01-03T23:18:58.431Z,4.93
2023-01-03T23:21:24.994Z,4.86
2023-01-03T23:23:51.628Z,4.78
2023-01-03T23:26:18.195Z,4.46
2023-01-03T23:28:44.801Z,4.71
2023-01-03T23:31:11.429Z,4.58
2023-01-03T23:33:38.094Z,4.45
2023-01-03T23:36:05.861Z,4.05
2023-01-03T23:38:32.538Z,3.96
2023-01-03T23:40:59.111Z,3.92
2023-01-03T23:43:25.740Z,3.90
2023-01-03T23:45:52.443Z,3.61
2023-01-03T23:48:19.221Z,3.59
2023-01-03T23:50:45.810Z,3.40
2023-01-03T23:53:12.424Z,3.40
2023-01-03T23:55:39.128Z,3.84
2023-01-03T23:58:06.220Z,4.06
